createdAt,value
2019-02-12T03:16:45.044Z,7.80
2019-02-12T03:19:14.134Z,7.35
2019-02-12T03:21:44.207Z,7.10
2019-02-12T03:24:14.195Z,7.00
2019-02-12T03:26:54.407Z,6.30
2019-02-12T03:29:27.478Z,7.82
2019-02-12T03:31:56.555Z,6.63
2019-02-12T03:37:01.318Z,7.55
2019-02-12T03:39:30.360Z,6.30
2019-02-12T03:42:00.078Z,7.10
2019-02-12T03:44:30.207Z,8.00
2019-02-12T03:46:59.232Z,6.90
2019-02-12T03:52:12.606Z,7.70
2019-02-12T03:54:35.079Z,7.50
2019-02-12T03:57:04.129Z,6.23
2019-02-12T03:59:33.170Z,5.80
2019-02-12T04:02:03.291Z,7.03
2019-02-12T04:04:32.349Z,6.33
2019-02-12T04:07:01.404Z,5.73
2019-02-12T04:12:06.125Z,7.35
2019-02-12T04:14:36.387Z,7.40
2019-02-12T04:19:43.693Z,7.10
2019-02-12T04:22:22.300Z,6.73
2019-02-12T04:24:44.644Z,5.87
2019-02-12T04:27:13.678Z,5.80
2019-02-12T04:29:42.709Z,5.73
2019-02-12T04:32:12.718Z,7.07
2019-02-12T04:34:44.367Z,7.40
2019-02-12T04:37:14.412Z,5.97
2019-02-12T04:39:43.427Z,6.40
2019-02-12T04:42:15.444Z,6.20
2019-02-12T04:44:44.488Z,5.53
2019-02-12T04:47:15.183Z,6.80
2019-02-12T04:49:44.275Z,5.87
2019-02-12T04:52:13.367Z,7.27
2019-02-12T04:57:20.515Z,6.00
2019-02-12T04:59:49.578Z,5.40
2019-02-12T05:02:18.598Z,6.87
2019-02-12T05:04:47.643Z,5.70
2019-02-12T05:07:17.605Z,6.43
2019-02-12T05:09:46.969Z,6.87
2019-02-12T05:12:16.927Z,6.87
2019-02-12T05:17:21.773Z,6.75
2019-02-12T05:19:51.299Z,5.53
2019-02-12T05:22:21.273Z,5.70
2019-02-12T05:24:50.301Z,5.60
2019-02-12T05:27:20.693Z,6.30
2019-02-12T05:29:49.767Z,7.13
2019-02-12T05:32:18.798Z,7.07
2019-02-12T05:34:47.857Z,6.40
2019-02-12T05:37:16.880Z,6.70
2019-02-12T05:39:46.421Z,6.30
2019-02-12T05:42:16.459Z,6.13
2019-02-12T05:44:45.501Z,7.37
2019-02-12T05:47:15.471Z,6.90
2019-02-12T05:49:44.508Z,5.53
2019-02-12T05:52:16.381Z,5.23
2019-02-12T05:54:45.440Z,5.53
2019-02-12T05:57:14.484Z,5.73
2019-02-12T05:59:46.978Z,6.97
2019-02-12T06:02:14.797Z,5.93
2019-02-12T06:04:43.825Z,5.47
2019-02-12T06:07:16.364Z,4.60
2019-02-12T06:09:45.419Z,5.37
2019-02-12T06:12:17.251Z,5.93
2019-02-12T06:14:46.325Z,6.60
2019-02-12T06:17:16.359Z,5.50
2019-02-12T06:19:45.429Z,5.50
2019-02-12T06:22:15.284Z,7.55
2019-02-12T06:24:46.623Z,7.00
2019-02-12T06:27:16.934Z,7.10
2019-02-12T06:29:46.157Z,5.10
2019-02-12T06:32:16.007Z,5.90
2019-02-12T06:34:47.436Z,4.83
2019-02-12T06:37:16.972Z,5.13
2019-02-12T06:39:47.091Z,4.70
2019-02-12T06:42:16.083Z,4.93
2019-02-12T06:45:01.058Z,4.10
2019-02-12T06:47:31.540Z,4.20
2019-02-12T06:50:00.580Z,4.87
2019-02-12T06:52:30.921Z,5.50
2019-02-12T06:55:01.832Z,5.33
2019-02-12T06:57:33.457Z,5.50
2019-02-12T07:00:02.568Z,5.10
2019-02-12T07:02:52.635Z,5.00
2019-02-12T07:17:43.451Z,4.97
2019-02-12T07:20:19.291Z,5.10
2019-02-12T07:26:35.182Z,4.18
2019-02-12T07:41:20.443Z,4.70
2019-02-12T07:53:13.403Z,3.70
2019-02-12T07:55:48.163Z,4.00
2019-02-12T08:02:02.095Z,3.28
2019-02-12T08:10:35.693Z,4.00
2019-02-12T08:13:17.349Z,4.03
2019-02-12T08:16:17.886Z,2.70
2019-02-12T08:22:14.157Z,3.62
2019-02-12T08:25:13.683Z,3.90
2019-02-12T08:28:08.100Z,3.50
2019-02-12T08:30:44.377Z,3.70
2019-02-12T08:36:39.243Z,3.95
2019-02-12T08:42:32.263Z,4.85
2019-02-12T08:53:52.800Z,5.37
2019-02-12T08:56:24.779Z,6.05
2019-02-12T08:59:19.874Z,5.90
2019-02-12T09:01:56.507Z,4.70
2019-02-12T09:04:35.022Z,5.20
2019-02-12T09:12:22.713Z,4.80
2019-02-12T09:15:19.148Z,5.97
2019-02-12T09:21:10.132Z,5.00
2019-02-12T09:24:00.400Z,4.60
2019-02-12T09:41:01.639Z,5.10
2019-02-12T09:55:27.672Z,4.62
2019-02-12T09:58:11.303Z,4.23
2019-02-12T10:00:46.213Z,4.50
2019-02-12T10:12:42.581Z,9.55
2019-02-12T10:15:48.051Z,4.20
2019-02-12T10:30:23.844Z,4.57
2019-02-12T10:35:29.818Z,3.90
2019-02-12T10:37:58.855Z,3.50
2019-02-12T10:40:28.859Z,4.47
2019-02-12T10:43:06.636Z,3.70
2019-02-12T10:48:12.249Z,4.07
2019-02-12T10:50:41.292Z,4.07
2019-02-12T10:53:11.084Z,3.30
2019-02-12T10:55:40.133Z,3.90
2019-02-12T10:58:09.697Z,3.83
2019-02-12T11:00:38.926Z,4.50
2019-02-12T11:03:07.959Z,3.93
2019-02-12T11:05:45.532Z,3.90
2019-02-12T11:08:14.586Z,4.60
2019-02-12T11:10:45.120Z,4.85
2019-02-12T11:13:12.650Z,4.57
2019-02-12T11:15:41.691Z,3.90
2019-02-12T11:18:11.258Z,3.97
2019-02-12T11:20:40.352Z,4.90
2019-02-12T11:23:10.920Z,5.03
2019-02-12T11:25:42.542Z,3.13
2019-02-12T11:28:11.610Z,3.70
2019-02-12T11:30:41.428Z,3.97
2019-02-12T11:33:23.475Z,4.30
2019-02-12T11:35:54.647Z,3.00
2019-02-12T11:38:24.928Z,3.40
2019-02-12T11:40:59.720Z,3.33
2019-02-12T11:43:30.508Z,3.40
2019-02-12T11:48:34.765Z,4.10
2019-02-12T11:51:05.560Z,3.30
2019-02-12T11:53:38.344Z,3.07
2019-02-12T12:01:23.486Z,3.58
2019-02-12T12:03:53.334Z,4.30
2019-02-12T12:09:04.087Z,3.40
2019-02-12T12:11:40.430Z,3.30
2019-02-12T12:14:09.464Z,2.87
2019-02-12T12:16:39.206Z,3.03
2019-02-12T12:19:08.362Z,2.87
2019-02-12T12:21:37.422Z,2.97
2019-02-12T12:24:06.487Z,2.83
2019-02-12T12:26:35.520Z,2.97
2019-02-12T12:29:04.964Z,2.63
2019-02-12T12:34:09.736Z,3.15
2019-02-12T12:41:58.244Z,3.60
2019-02-12T12:44:27.293Z,3.40
2019-02-12T12:46:57.336Z,3.20
2019-02-12T12:52:02.100Z,2.60
2019-02-12T12:54:32.023Z,3.70
2019-02-12T12:57:02.010Z,3.10
2019-02-12T12:59:31.050Z,3.43
2019-02-12T13:02:00.626Z,2.93
2019-02-12T13:04:29.708Z,3.72
2019-02-12T13:07:02.681Z,4.03
2019-02-12T13:09:33.803Z,3.00
2019-02-12T13:14:39.988Z,2.80
2019-02-12T13:17:09.011Z,3.00
2019-02-12T13:19:38.034Z,2.70
2019-02-12T13:22:07.712Z,3.30
2019-02-12T13:24:37.151Z,2.63
2019-02-12T13:27:06.191Z,2.67
2019-02-12T13:29:35.323Z,3.33
2019-02-12T13:32:04.346Z,2.50
2019-02-12T13:34:34.031Z,3.10
2019-02-12T13:39:18.264Z,2.70
2019-02-12T13:44:34.883Z,3.00
2019-02-12T13:47:03.944Z,3.57
2019-02-12T13:49:33.955Z,3.30
2019-02-12T13:52:03.009Z,3.07
2019-02-12T13:54:33.327Z,3.57
2019-02-12T13:57:02.499Z,3.60
2019-02-12T13:59:33.628Z,3.93
2019-02-12T14:04:37.275Z,4.60
2019-02-12T14:07:12.702Z,4.30
2019-02-12T14:12:19.426Z,4.40
2019-02-12T14:14:48.442Z,4.57
2019-02-12T14:17:17.502Z,5.10
2019-02-12T14:19:47.090Z,3.90
2019-02-12T14:22:16.152Z,4.40
2019-02-12T14:24:46.116Z,4.20
2019-02-12T14:27:15.970Z,4.00
2019-02-12T14:29:45.230Z,5.13
2019-02-12T14:32:14.253Z,4.10
2019-02-12T14:34:48.739Z,5.75
2019-02-12T14:37:17.780Z,5.47
2019-02-12T14:39:47.435Z,5.32
2019-02-12T14:42:16.495Z,6.00
2019-02-12T14:44:45.623Z,4.82
2019-02-12T14:47:14.653Z,4.73
2019-02-12T14:49:43.675Z,4.57
2019-02-12T14:52:13.314Z,5.53
2019-02-12T14:54:47.401Z,4.83
2019-02-12T14:57:21.065Z,5.20
2019-02-12T15:02:26.169Z,5.60
2019-02-12T15:05:00.393Z,5.00
2019-02-12T15:07:24.252Z,4.70
2019-02-12T15:09:55.291Z,3.77
2019-02-12T15:12:24.799Z,4.37
2019-02-12T15:14:53.835Z,3.73
2019-02-12T15:17:22.891Z,2.90
2019-02-12T15:19:51.934Z,4.00
2019-02-12T15:22:25.194Z,3.10
2019-02-12T15:24:54.489Z,3.67
2019-02-12T15:27:30.856Z,3.97
2019-02-12T15:29:59.923Z,3.23
2019-02-12T15:32:32.635Z,2.60
2019-02-12T15:35:02.493Z,3.00
2019-02-12T15:37:33.443Z,3.70
2019-02-12T15:40:02.486Z,3.00
2019-02-12T15:42:31.510Z,2.50
2019-02-12T15:45:02.449Z,3.00
2019-02-12T15:47:33.411Z,3.10
2019-02-12T15:50:02.439Z,2.77
2019-02-12T15:52:33.246Z,3.30
2019-02-12T15:55:02.277Z,2.97
2019-02-12T15:57:40.532Z,2.50
2019-02-12T16:00:18.648Z,3.43
2019-02-12T16:02:47.454Z,3.37
2019-02-12T16:05:16.503Z,3.20
2019-02-12T16:07:47.480Z,3.37
2019-02-12T16:10:16.966Z,3.50
2019-02-12T16:12:46.606Z,3.30
2019-02-12T16:15:16.032Z,3.03
2019-02-12T16:18:00.710Z,2.90
2019-02-12T16:20:30.985Z,3.07
2019-02-12T16:23:00.723Z,3.17
2019-02-12T16:25:30.704Z,4.00
2019-02-12T16:27:59.750Z,3.67
2019-02-12T16:30:33.231Z,3.50
2019-02-12T16:33:02.298Z,3.60
2019-02-12T16:35:31.314Z,2.80
2019-02-12T16:38:00.367Z,4.00
2019-02-12T16:40:35.351Z,3.43
2019-02-12T16:43:06.412Z,4.40
2019-02-12T16:48:30.990Z,4.40
2019-02-12T16:51:01.002Z,4.70
2019-02-12T16:53:30.032Z,3.60
2019-02-12T16:56:07.874Z,3.83
2019-02-12T16:58:28.916Z,2.90
2019-02-12T17:00:57.959Z,3.90
2019-02-12T17:03:33.683Z,3.17
2019-02-12T17:06:03.175Z,2.90
2019-02-12T17:08:32.208Z,3.30
2019-02-12T17:11:01.269Z,3.80
2019-02-12T17:13:30.345Z,3.30
2019-02-12T17:16:00.082Z,3.70
2019-02-12T17:18:29.131Z,4.20
2019-02-12T17:20:58.220Z,5.40
2019-02-12T17:23:27.288Z,5.90
2019-02-12T17:25:56.320Z,5.10
2019-02-12T17:28:26.601Z,6.60
2019-02-12T17:30:59.483Z,4.50
2019-02-12T17:33:28.503Z,4.20
2019-02-12T17:35:57.943Z,4.85
2019-02-12T17:38:27.003Z,4.83
2019-02-12T17:40:56.078Z,7.00
2019-02-12T17:43:25.106Z,7.47
2019-02-12T17:46:02.308Z,5.77
2019-02-12T17:48:34.625Z,4.80
2019-02-12T17:51:03.671Z,4.40
2019-02-12T17:53:32.715Z,5.30
2019-02-12T17:56:01.747Z,5.33
2019-02-12T17:58:30.797Z,6.20
2019-02-12T18:01:00.456Z,8.80
2019-02-12T18:03:29.524Z,19.70
2019-02-12T18:05:58.573Z,23.87
2019-02-12T18:08:28.165Z,7.23
2019-02-12T18:11:01.259Z,7.10
2019-02-12T18:13:30.321Z,11.23
2019-02-12T18:18:34.567Z,8.80
2019-02-12T18:21:04.209Z,8.60
2019-02-12T18:23:34.266Z,7.10
2019-02-12T18:26:03.355Z,7.10
2019-02-12T18:28:32.442Z,6.80
2019-02-12T18:33:37.946Z,7.70
2019-02-12T18:36:07.093Z,8.60
2019-02-12T18:38:36.119Z,7.40
2019-02-12T18:41:07.104Z,8.65
2019-02-12T18:46:11.685Z,8.20
2019-02-12T18:51:16.466Z,5.30
2019-02-12T18:53:47.398Z,5.65
2019-02-12T18:56:16.480Z,5.87
2019-02-12T18:58:48.663Z,4.03
2019-02-12T19:01:17.719Z,4.10
2019-02-12T19:03:46.775Z,4.63
2019-02-12T19:06:16.290Z,4.43
2019-02-12T19:08:47.400Z,4.40
2019-02-12T19:11:16.475Z,6.32
2019-02-12T19:13:53.856Z,7.12
2019-02-12T19:16:22.935Z,5.83
2019-02-12T19:18:52.109Z,7.78
2019-02-12T19:21:21.168Z,6.40
2019-02-12T19:23:50.405Z,6.43
2019-02-12T19:26:20.270Z,8.60
2019-02-12T19:28:49.351Z,7.43
2019-02-12T19:31:19.348Z,8.80
2019-02-12T19:33:55.132Z,7.70
2019-02-12T19:36:24.298Z,7.17
2019-02-12T19:38:53.683Z,9.68
2019-02-12T19:41:22.769Z,7.73
2019-02-12T19:43:52.837Z,8.17
2019-02-12T19:46:23.003Z,11.77
2019-02-12T19:51:31.745Z,11.90
2019-02-12T19:54:00.794Z,8.50
2019-02-12T19:56:29.843Z,7.13
2019-02-12T19:58:59.480Z,8.43
2019-02-12T20:01:28.582Z,9.97
2019-02-12T20:03:57.680Z,9.93
2019-02-12T20:06:27.611Z,10.80
2019-02-12T20:08:57.636Z,11.80
2019-02-12T20:11:28.179Z,12.67
2019-02-12T20:16:34.422Z,13.85
2019-02-12T20:21:45.498Z,15.03
2019-02-12T20:24:14.991Z,12.63
2019-02-12T20:26:44.135Z,9.73
2019-02-12T20:29:13.187Z,10.40
2019-02-12T20:31:43.869Z,11.60
2019-02-12T20:34:12.954Z,8.97
2019-02-12T20:36:42.004Z,10.90
2019-02-12T20:39:11.089Z,10.27
2019-02-12T20:41:40.165Z,10.10
2019-02-12T20:44:09.745Z,10.50
2019-02-12T20:46:38.824Z,10.43
2019-02-12T20:49:09.830Z,8.57
2019-02-12T20:51:39.883Z,8.07
2019-02-12T20:54:08.915Z,9.60
2019-02-12T20:56:39.990Z,9.10
2019-02-12T20:59:09.058Z,11.00
2019-02-12T21:01:40.054Z,9.17
2019-02-12T21:04:09.602Z,10.32
2019-02-12T21:06:38.643Z,9.00
2019-02-12T21:09:07.715Z,10.80
2019-02-12T21:11:36.755Z,9.70
2019-02-12T21:14:06.307Z,10.40
2019-02-12T21:16:35.851Z,10.20
2019-02-12T21:19:05.179Z,10.17
2019-02-12T21:21:35.403Z,11.20
2019-02-12T21:24:06.150Z,10.03
2019-02-12T21:26:35.281Z,11.70
2019-02-12T21:29:06.742Z,11.53
2019-02-12T21:31:35.791Z,12.30
2019-02-12T21:34:04.860Z,9.93
2019-02-12T21:39:19.777Z,11.63
2019-02-12T21:41:49.575Z,10.20
2019-02-12T21:44:19.977Z,13.20
2019-02-12T21:46:50.668Z,10.40
2019-02-12T21:49:21.411Z,11.50
2019-02-12T21:54:27.567Z,10.40
2019-02-12T21:56:57.166Z,8.97
2019-02-12T21:59:26.227Z,9.33
2019-02-12T22:04:35.471Z,10.52
2019-02-12T22:07:04.826Z,8.70
2019-02-12T22:10:26.385Z,10.00
2019-02-12T22:12:55.664Z,9.23
2019-02-12T22:15:28.812Z,9.23
2019-02-12T22:17:58.225Z,7.50
2019-02-12T22:20:32.367Z,9.25
2019-02-12T22:23:02.084Z,7.00
2019-02-12T22:25:32.269Z,9.07
2019-02-12T22:28:03.051Z,7.07
2019-02-12T22:30:36.701Z,9.00
2019-02-12T22:33:06.434Z,10.85
2019-02-12T22:35:42.545Z,10.00
2019-02-12T22:38:11.845Z,10.52
2019-02-12T22:40:40.910Z,9.90
2019-02-12T22:43:11.076Z,9.88
2019-02-12T22:45:40.301Z,10.07
2019-02-12T22:48:19.441Z,8.40
2019-02-12T22:50:48.486Z,10.00
2019-02-12T22:53:17.648Z,8.63
2019-02-12T22:55:46.724Z,10.23
2019-02-12T22:58:15.779Z,8.27
2019-02-12T23:00:54.813Z,10.48
2019-02-12T23:03:24.044Z,11.57
2019-02-12T23:05:53.279Z,12.05
2019-02-12T23:08:23.353Z,8.83
2019-02-12T23:13:39.835Z,12.13
2019-02-12T23:16:09.103Z,8.63
2019-02-12T23:18:43.383Z,10.32
2019-02-12T23:21:12.937Z,7.90
2019-02-12T23:23:42.039Z,10.33
2019-02-12T23:26:12.103Z,8.17
2019-02-12T23:28:41.328Z,10.70
2019-02-12T23:31:11.816Z,8.23
2019-02-12T23:38:56.991Z,11.00
2019-02-12T23:41:26.151Z,9.80
2019-02-12T23:43:55.209Z,11.40
2019-02-12T23:46:24.858Z,9.27
2019-02-12T23:51:35.490Z,11.27
2019-02-12T23:54:04.530Z,9.57
2019-02-12T23:56:36.974Z,10.85
2019-02-12T23:59:06.731Z,9.20
